• Join FlightAware (Why Join?)
  • Login
  • US Flag 
09:08PM EDT


 

Airport Tracker/Info


-or-


 

Live Flight TrackerFlight Track Log ✈ SWA1810 ✈ 02-May-2013 ✈ KBWI - KCMH

Flight Track Log - Related Links

Times and Time Zones

All times are in EDT time to prevent confusion due to time zone crossing. See the SWA1810 flight status page for this flight to view local times or setup timezone preferences in your user account.

Time Position Orientation Groundspeed Altitude Reporting Facility
EDT Latitude Longitude Course Direction KTS MPH feet Rate Location/Type
11:10AM 39.1333 -76.6667 303° West 194 223 2,300  Level Potomac TRACON
11:11AM 39.1667 -76.7333 303° West 227 261 4,900 2,760 Climbing Potomac TRACON
11:12AM 39.1833 -76.8167 284° West 277 319 7,900 3,120 Climbing Potomac TRACON
11:13AM 39.1833 -76.9333 270° West 311 358 11,200 3,300 Climbing Potomac TRACON
11:14AM 39.2000 -77.0500 280° West 354 407 14,600 2,880 Climbing Potomac TRACON
11:16AM 39.1000 -77.2553 238° Southwest 336 387 20,100 2,640 Climbing Washington Center
11:17AM 39.0092 -77.3414 216° Southwest 363 418 22,700 1,500 Climbing Washington Center
11:18AM 38.9756 -77.4819 253° West 389 448 23,100 1,500 Climbing Washington Center
11:19AM 38.9500 -77.6494 259° West 426 490 25,800 2,700 Climbing Washington Center
11:20AM 38.9453 -77.7989 268° West 431 496 28,600 2,040 Climbing Washington Center
11:21AM 38.9528 -77.9539 274° West 431 496 30,000 660 Climbing Washington Center
11:22AM 38.9581 -78.1064 273° West 431 496 30,000  Level Washington Center
11:23AM 38.9608 -78.2611 271° West 436 502 30,000  Level Washington Center
11:24AM 38.9678 -78.4164 273° West 436 502 30,000  Level Washington Center
11:25AM 38.9725 -78.5661 272° West 436 502 30,000  Level Washington Center
11:26AM 38.9769 -78.7239 272° West 436 502 30,000  Level Washington Center
11:27AM 38.9811 -78.8761 272° West 442 509 30,000  Level Washington Center
11:28AM 38.9853 -79.0311 272° West 442 509 30,000  Level Washington Center
11:29AM 38.9892 -79.1836 272° West 442 509 30,000  Level Washington Center
11:30AM 38.9928 -79.3361 272° West 442 509 30,000  Level Washington Center
11:31AM 38.9983 -79.4914 273° West 442 509 30,000  Level Washington Center
11:33AM 38.9994 -79.8317 270° West 428 493 30,000  Level Indianapolis Center
11:34AM 39.0022 -79.9817 271° West 432 497 30,000  Level Indianapolis Center
11:35AM 39.0050 -80.1556 271° West 433 498 30,000  Level Indianapolis Center
11:36AM 39.0083 -80.3106 272° West 434 499 30,000  Level Indianapolis Center
11:37AM 39.0283 -80.4617 280° West 431 496 30,000  Level Indianapolis Center
11:38AM 39.0728 -80.6069 292° West 434 499 30,000  Level Indianapolis Center
11:39AM 39.1175 -80.7547 291° West 443 510 30,000  Level Indianapolis Center
11:40AM 39.1614 -80.8981 292° West 435 501 30,000 -240 Level Indianapolis Center
11:41AM 39.2136 -81.0717 291° West 435 501 29,600 -1,080 Descending Indianapolis Center
11:42AM 39.2550 -81.2058 292° West 410 472 27,800 -1,800 Descending Indianapolis Center
11:43AM 39.2939 -81.3364 291° West 395 455 25,900 -1,800 Descending Indianapolis Center
11:45AM 39.3308 -81.4650 290° West 385 443 24,100 -1,800 Descending Indianapolis Center
11:46AM 39.3686 -81.5903 291° West 377 434 22,300 -1,740 Descending Indianapolis Center
11:47AM 39.4039 -81.7111 291° West 364 419 20,600 -1,800 Descending Indianapolis Center
11:48AM 39.4461 -81.8531 291° West 355 409 18,600 -1,680 Descending Indianapolis Center
11:49AM 39.4794 -81.9669 291° West 343 395 17,200 -1,560 Descending Indianapolis Center
11:50AM 39.5128 -82.0822 291° West 342 394 15,400 -1,860 Descending Indianapolis Center
11:50AM 39.5306 -82.1489 289° West 338 389 14,300 -1,980 Descending Indianapolis Center
11:51AM 39.5458 -82.1969 292° West 338 389 13,400 -1,860 Descending Indianapolis Center
11:51AM 39.5581 -82.2461 288° West 334 384 12,800 -1,620 Descending Indianapolis Center
11:52AM 39.5786 -82.3078 293° West 328 377 11,800 -1,620 Descending Indianapolis Center
11:52AM 39.5928 -82.3606 289° West 322 371 11,000 -1,800 Descending Indianapolis Center
11:53AM 39.6089 -82.4167 290° West 320 368 10,000 -1,020 Descending Indianapolis Center
11:53AM 39.6250 -82.4778 289° West 318 366 10,000  Level Indianapolis Center
11:54AM 39.6414 -82.5247 294° West 319 367 10,000  Level Indianapolis Center
11:54AM 39.6528 -82.5672 289° West 316 364 10,000 -1,020 Level Indianapolis Center
11:55AM 39.6767 -82.6497 291° West 314 361 9,000 -1,380 Descending Indianapolis Center
11:55AM 39.6867 -82.6875 289° West 310 357 8,500 -1,080 Descending Indianapolis Center
11:56AM 39.7081 -82.7522 293° West 305 351 7,900 -540 Descending Indianapolis Center
11:56AM 39.7178 -82.7883 289° West 303 349 8,000  Climbing Indianapolis Center
11:57AM 39.7383 -82.8544 292° West 301 346 7,900  Descending Indianapolis Center
11:57AM 39.7467 -82.8867 289° West 286 329 8,000 -300 Climbing Indianapolis Center
11:58AM 39.7650 -82.9442 293° West 266 306 7,600 -600 Descending Indianapolis Center
11:58AM 39.7742 -82.9739 292° West 254 292 7,400 -780 Descending Indianapolis Center
11:59AM 39.7922 -83.0308 292° West 258 297 6,800 -1,020 Descending Indianapolis Center
11:59AM 39.8147 -83.0544 321° Northwest 252 290 6,400 -900 Descending Indianapolis Center
12:00PM 39.8469 -83.0872 322° Northwest 253 291 5,900 -540 Descending Indianapolis Center
12:00PM 39.8697 -83.1069 326° Northwest 243 280 5,900 -720 Level Indianapolis Center
12:01PM 39.9022 -83.1378 324° Northwest 246 283 5,200 -900 Descending Indianapolis Center
12:01PM 39.9228 -83.1567 325° Northwest 237 273 5,000 -240 Descending Indianapolis Center
12:02PM 39.9594 -83.1722 342° North 237 273 5,000  Level Indianapolis Center
12:02PM 39.9825 -83.1719 North 202 232 5,000 -1,080 Level Indianapolis Center
12:03PM 40.0056 -83.1361 50° Northeast 191 220 3,900 -1,380 Descending Indianapolis Center
12:03PM 40.0069 -83.1203 83° East 174 200 3,600 -1,020 Descending Indianapolis Center
12:04PM 40.0039 -83.0725 95° East 180 207 2,900 -720 Descending Indianapolis Center
12:05PM 40.0008 -83.0108 94° East 173 199 2,300 -720 Descending Indianapolis Center
12:06PM 39.9972 -82.9564 95° East 161 185 1,500 -600 Descending Indianapolis Center
12:07PM 39.9944 -82.9044 94° East 153 176 1,100 -420 Descending Indianapolis Center